Time;durP1;ratioP1;P1;durP2;ratioP2;P2;SDS_P1;SDS_P2;PMS_P1;PMS_P2;Temp;Humidity;BMP_temperature;BMP_pressure;BME280_temperature;BME280_humidity;BME280_pressure;Samples;Min_cycle;Max_cycle;Signal;HPM_P1;HPM_P2
2022/08/09 00:01:15;;;;;;;5.93;3.00;;;;;;;16.66;82.36;102866.41;5078269;28;20031;-73
2022/08/09 00:03:40;;;;;;;8.27;2.97;;;;;;;16.68;82.43;102867.94;5104914;28;20440;-72
2022/08/09 00:06:06;;;;;;;4.17;2.93;;;;;;;16.64;82.25;102865.75;5089482;28;20067;-72
2022/08/09 00:08:31;;;;;;;4.30;2.97;;;;;;;16.63;82.52;102866.78;5098441;28;20043;-72
2022/08/09 00:10:58;;;;;;;8.33;2.97;;;;;;;16.62;82.60;102867.84;5071159;28;20040;-73
2022/08/09 00:13:23;;;;;;;6.75;3.03;;;;;;;16.58;81.79;102864.59;5090541;28;20590;-71
2022/08/09 00:15:49;;;;;;;4.70;3.00;;;;;;;16.59;82.46;102858.00;5089841;28;20115;-73
2022/08/09 00:18:14;;;;;;;7.23;2.97;;;;;;;16.60;83.17;102864.41;5089515;28;20040;-71
2022/08/09 00:20:40;;;;;;;7.93;3.00;;;;;;;16.55;82.39;102859.41;5080850;28;20035;-71
2022/08/09 00:23:05;;;;;;;6.17;3.43;;;;;;;16.49;82.66;102859.31;5110108;28;20031;-72
2022/08/09 00:25:30;;;;;;;6.57;3.23;;;;;;;16.52;83.01;102859.81;5108859;28;20027;-70
2022/08/09 00:27:56;;;;;;;4.80;3.00;;;;;;;16.51;83.74;102857.22;5088080;28;20036;-72
2022/08/09 00:30:21;;;;;;;9.60;3.10;;;;;;;16.49;83.10;102853.78;5054829;28;20058;-72
2022/08/09 00:32:48;;;;;;;8.13;3.80;;;;;;;16.48;83.96;102857.63;5089365;28;20070;-71
2022/08/09 00:35:13;;;;;;;6.30;3.45;;;;;;;16.47;83.62;102861.41;5097357;28;20032;-71
2022/08/09 00:37:38;;;;;;;6.50;3.40;;;;;;;16.49;83.93;102870.38;5089667;28;20032;-72
2022/08/09 00:40:05;;;;;;;5.87;3.60;;;;;;;16.51;83.88;102863.63;5089391;28;20032;-73
2022/08/09 00:42:30;;;;;;;7.57;4.18;;;;;;;16.49;83.96;102862.09;5089055;28;20485;-72
2022/08/09 00:44:55;;;;;;;8.20;4.03;;;;;;;16.50;83.49;102858.28;5076626;28;20063;-73
2022/08/09 00:47:22;;;;;;;6.37;3.10;;;;;;;16.40;84.08;102865.97;5098542;28;20067;-74
2022/08/09 00:49:47;;;;;;;6.22;3.72;;;;;;;16.32;83.93;102861.31;5093126;28;20027;-71
2022/08/09 00:52:13;;;;;;;6.20;3.80;;;;;;;16.34;84.41;102866.69;5094035;28;20063;-71
2022/08/09 00:54:38;;;;;;;6.07;3.67;;;;;;;16.33;83.33;102863.03;5109646;28;20110;-71
2022/08/09 00:57:04;;;;;;;5.70;3.70;;;;;;;16.23;84.42;102872.66;5101497;28;20016;-71
2022/08/09 00:59:29;;;;;;;7.90;4.23;;;;;;;16.28;84.67;102865.50;5105007;28;20098;-72
2022/08/09 01:01:59;;;;;;;7.80;4.37;;;;;;;16.24;84.20;102860.53;5086783;28;20058;-72
2022/08/09 01:04:33;;;;;;;7.97;4.28;;;;;;;16.24;84.92;102866.94;5100232;28;20470;-72
2022/08/09 01:07:05;;;;;;;4.82;3.90;;;;;;;16.14;84.91;102871.84;5094536;28;20031;-72
2022/08/09 01:09:44;;;;;;;4.28;3.83;;;;;;;16.13;84.74;102866.50;5112101;28;20372;-71
2022/08/09 01:12:31;;;;;;;4.30;3.65;;;;;;;16.10;84.43;102864.09;5091592;28;20484;-72
2022/08/09 01:15:04;;;;;;;8.65;3.88;;;;;;;16.17;85.09;102862.34;5089504;28;20068;-71
2022/08/09 01:17:34;;;;;;;5.22;3.67;;;;;;;16.09;84.87;102857.72;5076883;28;20059;-72
2022/08/09 01:20:04;;;;;;;6.57;4.00;;;;;;;16.09;84.69;102867.91;5109085;28;20027;-70
2022/08/09 01:22:53;;;;;;;4.65;4.13;;;;;;;16.06;84.80;102873.81;5104531;28;20028;-72
2022/08/09 01:25:41;;;;;;;5.75;4.25;;;;;;;16.08;84.98;102882.78;5092500;28;20075;-72
2022/08/09 01:28:09;;;;;;;7.80;3.90;;;;;;;16.04;85.91;102881.41;5100317;28;20024;-73
2022/08/09 01:30:36;;;;;;;4.85;3.67;;;;;;;16.06;84.61;102874.66;5092269;28;20099;-71
2022/08/09 01:33:06;;;;;;;5.63;4.10;;;;;;;15.98;85.79;102873.88;5074552;28;20031;-72
2022/08/09 01:35:46;;;;;;;7.63;3.95;;;;;;;15.98;85.37;102876.63;5092704;28;20032;-73
2022/08/09 01:38:16;;;;;;;6.60;3.95;;;;;;;15.95;85.76;102871.47;5084366;28;20024;-71
2022/08/09 01:40:48;;;;;;;5.03;4.30;;;;;;;15.94;85.23;102873.38;5112008;28;20100;-72
2022/08/09 01:43:15;;;;;;;5.88;3.72;;;;;;;15.85;85.67;102877.22;5103644;28;20032;-73
2022/08/09 01:45:41;;;;;;;;;;;;;;;15.86;85.57;102878.09;5073627;28;20031;-72
2022/08/09 01:48:08;;;;;;;6.60;3.97;;;;;;;15.85;85.37;102876.38;5100964;28;19919;-71
2022/08/09 01:50:34;;;;;;;6.93;3.70;;;;;;;15.82;85.54;102883.13;5112556;28;20039;-72
2022/08/09 01:53:01;;;;;;;4.38;3.90;;;;;;;15.83;85.38;102881.22;5109686;28;20035;-72
2022/08/09 01:55:28;;;;;;;9.48;4.45;;;;;;;15.74;84.86;102885.09;5111205;28;20122;-72
2022/08/09 01:57:54;;;;;;;8.07;3.83;;;;;;;15.65;85.40;102881.50;5082828;28;20027;-71
2022/08/09 02:00:20;;;;;;;6.55;4.05;;;;;;;15.75;86.04;102881.28;5109470;28;20019;-72
2022/08/09 02:02:49;;;;;;;4.50;4.10;;;;;;;15.66;86.18;102885.09;5110851;28;20042;-72
2022/08/09 02:05:20;;;;;;;5.47;4.82;;;;;;;15.75;86.54;102887.66;5082305;28;20373;-71
2022/08/09 02:07:50;;;;;;;5.18;4.68;;;;;;;15.67;86.08;102884.94;5091829;28;20082;-72
2022/08/09 02:10:23;;;;;;;5.75;4.88;;;;;;;15.69;86.88;102882.84;5091662;28;20036;-71
2022/08/09 02:12:49;;;;;;;10.57;4.60;;;;;;;15.71;85.45;102888.19;5099572;28;20031;-71
2022/08/09 02:15:17;;;;;;;10.45;4.78;;;;;;;15.77;85.74;102876.41;5106927;28;20430;-71
2022/08/09 02:17:44;;;;;;;6.22;4.70;;;;;;;15.68;86.63;102875.59;5101058;28;20042;-73
2022/08/09 02:20:10;;;;;;;8.73;4.90;;;;;;;15.71;86.32;102874.38;5102434;28;20149;-72
2022/08/09 02:22:44;;;;;;;6.67;4.93;;;;;;;15.76;86.36;102874.69;5091780;28;20039;-71
2022/08/09 02:25:16;;;;;;;10.07;5.25;;;;;;;15.71;86.19;102875.25;5096534;28;20337;-72
2022/08/09 02:27:49;;;;;;;7.68;4.60;;;;;;;15.69;85.90;102876.47;5093208;28;20032;-71
2022/08/09 02:30:15;;;;;;;6.63;4.50;;;;;;;15.60;86.46;102872.91;5097135;28;20063;-71
2022/08/09 02:32:44;;;;;;;8.63;5.07;;;;;;;15.63;85.96;102875.28;5093619;28;20419;-71
2022/08/09 02:35:27;;;;;;;7.65;4.47;;;;;;;15.57;86.31;102866.84;5091340;28;20540;-71
2022/08/09 02:37:58;;;;;;;10.25;4.68;;;;;;;15.63;86.90;102866.16;5088033;28;20044;-72
2022/08/09 02:40:28;;;;;;;9.82;4.88;;;;;;;15.60;86.95;102861.84;5093278;28;20030;-71
2022/08/09 02:42:55;;;;;;;9.82;5.28;;;;;;;15.59;87.07;102870.31;5078109;28;20073;-71
2022/08/09 02:45:27;;;;;;;7.68;5.07;;;;;;;15.60;86.83;102866.50;5092965;28;20034;-71
2022/08/09 02:47:55;;;;;;;9.00;4.80;;;;;;;15.59;86.86;102865.63;5092028;28;20055;-72
2022/08/09 02:50:28;;;;;;;7.68;5.03;;;;;;;15.60;86.89;102866.50;5103236;28;20039;-72
2022/08/09 02:52:58;;;;;;;7.60;4.00;;;;;;;15.57;86.48;102866.84;5110131;28;20055;-71
2022/08/09 02:55:25;;;;;;;4.93;4.43;;;;;;;15.57;86.66;102856.66;5104263;28;20127;-73
2022/08/09 02:57:52;;;;;;;7.60;4.93;;;;;;;15.55;86.60;102861.53;5096434;28;20463;-73
2022/08/09 03:00:18;;;;;;;7.15;5.15;;;;;;;15.51;86.89;102860.16;5091725;28;20085;-73
2022/08/09 03:02:47;;;;;;;9.93;5.17;;;;;;;15.55;86.06;102861.53;5098853;28;20398;-71
2022/08/09 03:05:14;;;;;;;8.32;5.00;;;;;;;15.47;86.73;102844.97;5092294;28;20038;-71
2022/08/09 03:07:40;;;;;;;8.70;4.85;;;;;;;15.46;86.32;102851.56;5103825;28;20562;-73
2022/08/09 03:10:08;;;;;;;10.05;5.13;;;;;;;15.44;86.97;102847.25;5101820;28;20067;-70
2022/08/09 03:12:36;;;;;;;8.32;5.32;;;;;;;15.43;86.13;102843.59;5083528;28;20036;-71
2022/08/09 03:15:02;;;;;;;6.90;4.95;;;;;;;15.42;86.60;102843.81;5081469;28;20024;-71
2022/08/09 03:17:28;;;;;;;7.63;4.72;;;;;;;15.37;86.74;102849.00;5092438;28;20032;-71
2022/08/09 03:19:59;;;;;;;7.37;4.50;;;;;;;15.26;87.43;102850.22;5098109;28;20494;-71
2022/08/09 03:22:26;;;;;;;9.18;5.25;;;;;;;15.31;86.64;102849.69;5087326;28;20111;-72
2022/08/09 03:24:53;;;;;;;10.90;5.38;;;;;;;15.31;87.17;102860.75;5092659;28;20044;-71
2022/08/09 03:27:19;;;;;;;;;;;;;;;15.26;87.74;102857.66;5072642;28;20413;-73
2022/08/09 03:29:45;;;;;;;6.57;4.88;;;;;;;15.26;87.13;102857.66;5071320;28;20390;-72
2022/08/09 03:32:12;;;;;;;7.05;5.45;;;;;;;15.23;87.67;102858.00;5091693;28;20054;-71
2022/08/09 03:34:37;;;;;;;7.60;5.13;;;;;;;15.25;87.84;102862.31;5092184;28;20032;-71
2022/08/09 03:37:03;;;;;;;10.10;5.20;;;;;;;15.25;87.41;102861.44;5096328;28;20035;-72
2022/08/09 03:39:28;;;;;;;10.50;5.47;;;;;;;15.26;87.71;102860.41;5083678;28;20450;-71
2022/08/09 03:41:54;;;;;;;7.17;5.33;;;;;;;15.16;87.38;102862.53;5095068;28;20394;-72
2022/08/09 03:44:24;;;;;;;9.87;5.83;;;;;;;15.12;87.94;102861.16;5096926;28;20180;-72
2022/08/09 03:46:50;;;;;;;8.85;5.38;;;;;;;15.10;88.18;102863.25;5075922;28;20058;-71
2022/08/09 03:49:17;;;;;;;10.93;6.05;;;;;;;15.14;87.87;102859.06;5110646;28;20146;-72
2022/08/09 03:51:45;;;;;;;11.48;6.03;;;;;;;15.11;88.06;102854.75;5104179;28;20157;-72
2022/08/09 03:54:13;;;;;;;9.93;6.07;;;;;;;15.08;87.79;102866.19;5098537;28;20046;-71
2022/08/09 03:56:40;;;;;;;8.57;6.70;;;;;;;15.04;88.57;102867.56;5098715;28;20129;-71
2022/08/09 03:59:06;;;;;;;;;;;;;;;15.07;88.06;102866.34;5090068;28;20188;-71
2022/08/09 04:01:32;;;;;;;9.00;6.35;;;;;;;15.10;87.53;102855.81;5108510;28;19977;-72
2022/08/09 04:03:59;;;;;;;;;;;;;;;15.14;88.00;102864.59;5106091;28;20071;-74
2022/08/09 04:06:25;;;;;;;13.98;6.25;;;;;;;15.02;88.32;102864.13;5094718;28;20375;-73
2022/08/09 04:08:50;;;;;;;7.53;6.77;;;;;;;15.10;87.99;102861.31;5103844;28;20058;-73
2022/08/09 04:11:16;;;;;;;7.87;6.30;;;;;;;15.00;88.23;102873.63;5086224;28;20061;-72
2022/08/09 04:13:41;;;;;;;8.77;6.07;;;;;;;15.05;88.11;102882.22;5103701;28;20379;-72
2022/08/09 04:16:07;;;;;;;12.43;6.60;;;;;;;14.96;88.66;102872.25;5090777;28;20036;-71
2022/08/09 04:18:32;;;;;;;8.97;6.07;;;;;;;14.97;88.19;102868.44;5098911;28;20039;-71
2022/08/09 04:20:57;;;;;;;10.87;7.03;;;;;;;14.94;88.80;102874.34;5086362;28;20052;-70
2022/08/09 04:23:23;;;;;;;8.87;5.50;;;;;;;14.92;88.08;102880.03;5091667;28;20027;-74
2022/08/09 04:25:48;;;;;;;9.27;5.90;;;;;;;14.91;88.56;102882.94;5069846;28;20039;-73
2022/08/09 04:28:13;;;;;;;8.50;6.07;;;;;;;14.88;88.70;102878.63;5100228;28;20505;-72
2022/08/09 04:30:39;;;;;;;14.37;7.40;;;;;;;14.86;88.88;102874.34;5106543;28;20538;-71
2022/08/09 04:33:04;;;;;;;13.97;6.97;;;;;;;14.86;89.13;102889.00;5092685;28;20039;-72
2022/08/09 04:35:30;;;;;;;10.83;6.83;;;;;;;14.84;89.61;102888.28;5089891;28;20055;-71
2022/08/09 04:37:56;;;;;;;11.93;7.10;;;;;;;14.89;88.97;102891.41;5099318;28;20027;-71
2022/08/09 04:40:21;;;;;;;10.97;6.40;;;;;;;14.86;89.00;102889.00;5070259;28;20042;-72
2022/08/09 04:42:47;;;;;;;7.87;6.20;;;;;;;14.90;88.88;102901.38;5072884;28;20517;-71
2022/08/09 04:45:12;;;;;;;12.23;7.10;;;;;;;14.90;89.45;102895.88;5090311;28;20098;-74
2022/08/09 04:47:37;;;;;;;12.10;7.40;;;;;;;14.86;89.51;102899.16;5094394;28;20060;-73
2022/08/09 04:50:04;;;;;;;16.60;6.97;;;;;;;14.88;89.31;102909.00;5106220;28;20035;-72
2022/08/09 04:52:29;;;;;;;7.32;6.10;;;;;;;14.96;88.35;102906.22;5108650;28;20039;-72
2022/08/09 04:54:56;;;;;;;10.37;7.17;;;;;;;14.92;88.79;102913.13;5071624;28;20396;-73
2022/08/09 04:57:21;;;;;;;9.77;7.35;;;;;;;14.93;89.10;102911.22;5094401;28;20114;-72
2022/08/09 04:59:46;;;;;;;11.00;7.33;;;;;;;14.91;89.07;102913.31;5072010;28;20141;-72
2022/08/09 05:02:13;;;;;;;10.27;7.57;;;;;;;14.98;89.27;102914.31;5094109;28;20032;-72
2022/08/09 05:04:38;;;;;;;9.02;6.68;;;;;;;14.97;89.14;102916.22;5070801;28;20244;-71
2022/08/09 05:07:04;;;;;;;11.43;7.00;;;;;;;14.99;88.79;102908.63;5071915;28;20374;-70
2022/08/09 05:09:30;;;;;;;8.27;7.00;;;;;;;14.99;89.06;102916.91;5074251;28;20031;-73
2022/08/09 05:11:56;;;;;;;16.90;7.28;;;;;;;15.05;88.95;102923.63;5103436;28;20069;-73
2022/08/09 05:14:22;;;;;;;10.93;6.63;;;;;;;15.04;88.79;102922.75;5096908;28;20039;-72
2022/08/09 05:16:48;;;;;;;14.33;6.97;;;;;;;15.12;88.68;102921.88;5077538;28;20118;-71
2022/08/09 05:19:13;;;;;;;9.07;6.80;;;;;;;15.12;88.49;102916.38;5101829;28;20073;-72
2022/08/09 05:21:39;;;;;;;9.77;6.77;;;;;;;15.14;88.51;102928.09;5075701;28;20028;-72
2022/08/09 05:24:05;;;;;;;12.82;7.28;;;;;;;15.21;88.23;102931.88;5072319;28;20411;-71
2022/08/09 05:26:31;;;;;;;12.77;6.93;;;;;;;15.25;88.04;102931.34;5071398;28;20063;-73
2022/08/09 05:28:57;;;;;;;15.23;7.03;;;;;;;15.36;87.65;102930.16;5070564;28;20169;-71
2022/08/09 05:31:22;;;;;;;12.57;7.63;;;;;;;15.40;87.33;102928.72;5099453;28;20458;-72
2022/08/09 05:33:47;;;;;;;18.03;7.23;;;;;;;15.43;87.32;102932.00;5090711;28;20517;-71
2022/08/09 05:36:13;;;;;;;9.60;6.83;;;;;;;15.47;87.28;102924.25;5100668;28;20036;-72
2022/08/09 05:38:38;;;;;;;15.63;6.87;;;;;;;15.48;87.00;102920.44;5098197;28;20099;-72
2022/08/09 05:41:03;;;;;;;13.87;6.57;;;;;;;15.56;86.69;102931.44;5073137;28;20153;-71
2022/08/09 05:43:29;;;;;;;9.17;7.10;;;;;;;15.64;87.13;102929.50;5087608;28;20027;-72
2022/08/09 05:45:54;;;;;;;14.67;7.63;;;;;;;15.70;86.48;102936.22;5092975;28;20550;-71
2022/08/09 05:48:19;;;;;;;10.10;7.27;;;;;;;15.73;86.29;102933.06;5096604;28;20047;-72
2022/08/09 05:50:45;;;;;;;13.23;7.20;;;;;;;15.81;85.95;102939.47;5107055;28;20042;-71
2022/08/09 05:53:11;;;;;;;14.38;7.18;;;;;;;15.91;85.63;102937.31;5072067;28;20024;-71
2022/08/09 05:55:36;;;;;;;15.40;7.33;;;;;;;15.95;85.58;102940.59;5094423;28;20040;-71
2022/08/09 05:58:02;;;;;;;10.80;7.47;;;;;;;16.04;85.45;102928.41;5092591;28;20085;-71
2022/08/09 06:00:30;;;;;;;10.40;6.73;;;;;;;16.05;85.44;102939.31;5091162;28;20036;-71
2022/08/09 06:02:57;;;;;;;11.32;6.45;;;;;;;16.11;85.56;102934.97;5099186;28;20475;-71
2022/08/09 06:05:27;;;;;;;13.10;7.55;;;;;;;16.14;85.00;102932.69;5090962;28;20395;-71
2022/08/09 06:07:52;;;;;;;11.80;7.30;;;;;;;16.28;84.71;102937.41;5095761;28;20035;-71
2022/08/09 06:10:18;;;;;;;9.20;7.00;;;;;;;16.32;84.38;102937.94;5078430;28;20043;-71
2022/08/09 06:12:43;;;;;;;9.30;6.90;;;;;;;16.39;83.94;102939.78;5092425;28;20040;-70
2022/08/09 06:15:09;;;;;;;8.30;6.80;;;;;;;16.44;83.89;102942.88;5074699;28;20139;-70
2022/08/09 06:17:34;;;;;;;14.33;6.67;;;;;;;16.58;83.29;102941.19;5098238;28;20104;-71
2022/08/09 06:19:59;;;;;;;12.53;7.53;;;;;;;16.57;83.29;102945.00;5098394;28;20036;-71
2022/08/09 06:22:25;;;;;;;7.27;6.10;;;;;;;16.69;82.86;102954.59;5076955;28;20032;-71
2022/08/09 06:24:50;;;;;;;11.03;6.57;;;;;;;16.80;82.30;102952.25;5073281;28;20038;-71
2022/08/09 06:27:15;;;;;;;11.13;6.50;;;;;;;16.92;82.17;102961.81;5100993;28;20032;-73
2022/08/09 06:29:41;;;;;;;10.20;6.97;;;;;;;17.00;81.61;102953.47;5094951;28;20480;-72
2022/08/09 06:32:06;;;;;;;13.90;6.77;;;;;;;18.28;78.54;102956.56;5098842;28;20111;-71
2022/08/09 06:34:32;;;;;;;10.70;6.83;;;;;;;19.80;73.45;102956.63;5095409;28;20043;-71
2022/08/09 06:36:57;;;;;;;8.40;6.33;;;;;;;20.72;68.00;102936.34;5079364;28;20069;-71
2022/08/09 06:39:22;;;;;;;10.47;6.43;;;;;;;21.24;66.32;102950.31;5092671;28;20081;-72
2022/08/09 06:41:48;;;;;;;10.57;5.50;;;;;;;21.59;65.13;102962.91;5100729;28;20525;-71
2022/08/09 06:44:13;;;;;;;8.63;5.27;;;;;;;22.12;63.98;102950.50;5091173;28;20056;-71
2022/08/09 06:46:40;;;;;;;11.53;5.53;;;;;;;22.33;61.69;102952.97;5099930;28;20035;-71
2022/08/09 06:49:05;;;;;;;;;;;;;;;22.85;61.71;102958.25;5096770;28;20447;-72
2022/08/09 06:51:32;;;;;;;8.52;5.18;;;;;;;22.66;62.32;102965.69;5104362;28;19916;-73
2022/08/09 06:53:57;;;;;;;10.93;4.70;;;;;;;23.19;60.83;102961.44;5079306;28;21744;-71
2022/08/09 06:56:23;;;;;;;6.97;4.33;;;;;;;23.19;60.22;102972.63;5081393;28;20027;-72
2022/08/09 06:58:48;;;;;;;7.07;4.90;;;;;;;23.25;58.01;102976.41;5101737;28;20100;-71
2022/08/09 07:01:14;;;;;;;11.77;5.13;;;;;;;23.08;60.02;102969.66;5073654;28;20028;-71
2022/08/09 07:03:39;;;;;;;8.97;4.87;;;;;;;23.21;57.79;102975.19;5099236;28;20069;-73
2022/08/09 07:06:05;;;;;;;5.37;4.50;;;;;;;22.93;59.55;102974.72;5075260;28;20028;-70
2022/08/09 07:08:31;;;;;;;7.07;4.13;;;;;;;23.28;59.27;102990.84;5086837;28;20108;-73
2022/08/09 07:10:56;;;;;;;7.88;4.60;;;;;;;23.43;57.74;102988.50;5108114;28;20020;-72
2022/08/09 07:13:22;;;;;;;6.63;4.43;;;;;;;23.00;58.35;102983.94;5096020;28;20039;-72
2022/08/09 07:15:47;;;;;;;6.20;3.97;;;;;;;23.72;57.72;102987.78;5091204;28;20039;-73
2022/08/09 07:18:12;;;;;;;8.43;4.00;;;;;;;23.32;57.99;102986.47;5078691;28;20471;-73
2022/08/09 07:20:38;;;;;;;7.47;4.73;;;;;;;23.01;58.95;102977.25;5089402;28;20027;-72
2022/08/09 07:23:03;;;;;;;6.23;4.20;;;;;;;23.22;57.77;102979.69;5076909;28;20020;-72
2022/08/09 07:25:28;;;;;;;4.67;4.20;;;;;;;22.89;57.92;102974.34;5070925;28;20059;-70
2022/08/09 07:27:54;;;;;;;6.47;4.70;;;;;;;22.98;58.43;102978.56;5092614;28;20043;-72
2022/08/09 07:30:19;;;;;;;8.60;4.30;;;;;;;23.22;58.08;102985.28;5098409;28;20114;-74
2022/08/09 07:32:44;;;;;;;13.80;4.20;;;;;;;23.51;58.89;102981.78;5097829;28;20118;-73
2022/08/09 07:35:11;;;;;;;9.13;4.53;;;;;;;23.09;59.23;102985.34;5095293;28;20066;-72
2022/08/09 07:37:41;;;;;;;5.32;3.80;;;;;;;23.32;57.83;102988.44;5092729;28;20095;-71
2022/08/09 07:40:07;;;;;;;6.03;4.18;;;;;;;23.45;56.94;102988.28;5091743;28;20055;-72
2022/08/09 07:42:32;;;;;;;8.80;4.32;;;;;;;23.50;57.45;102992.13;5097467;28;20019;-72
2022/08/09 07:44:58;;;;;;;7.33;3.97;;;;;;;22.85;57.66;102980.63;5073567;28;20173;-72
2022/08/09 07:47:23;;;;;;;5.20;3.20;;;;;;;23.19;55.54;102980.13;5087313;28;20044;-72
2022/08/09 07:49:48;;;;;;;3.70;2.87;;;;;;;23.50;55.86;102980.06;5088277;28;20034;-72
2022/08/09 07:52:14;;;;;;;8.47;3.10;;;;;;;23.65;55.41;102977.75;5070639;28;20035;-73
2022/08/09 07:54:39;;;;;;;4.97;3.27;;;;;;;23.51;55.60;102976.16;5090031;28;20121;-73
2022/08/09 07:57:05;;;;;;;4.13;2.70;;;;;;;23.56;56.86;102979.13;5076404;28;20031;-72
2022/08/09 07:59:31;;;;;;;6.47;3.05;;;;;;;23.67;55.87;102975.56;5091183;28;20093;-73
2022/08/09 08:01:56;;;;;;;9.73;3.10;;;;;;;23.38;56.65;102960.38;5100812;28;20054;-72
2022/08/09 08:04:22;;;;;;;4.27;2.70;;;;;;;23.38;56.62;102963.16;5095157;28;20035;-73
2022/08/09 08:06:47;;;;;;;4.60;2.37;;;;;;;23.27;56.33;102966.72;5078431;28;20024;-72
2022/08/09 08:09:13;;;;;;;4.93;2.60;;;;;;;23.32;55.42;102957.66;5097941;28;20098;-75
2022/08/09 08:11:38;;;;;;;7.60;2.53;;;;;;;23.57;55.61;102958.44;5076727;28;20030;-72
2022/08/09 08:14:04;;;;;;;7.25;2.30;;;;;;;23.06;55.74;102974.63;5073961;28;20098;-73
2022/08/09 08:16:29;;;;;;;3.00;2.20;;;;;;;23.16;55.71;102969.41;5094974;28;20032;-73
2022/08/09 08:18:56;;;;;;;12.83;2.43;;;;;;;23.17;56.16;102959.91;5097053;28;20076;-74
2022/08/09 08:21:21;;;;;;;6.97;1.98;;;;;;;23.22;56.04;102974.09;5094640;28;20273;-73
2022/08/09 08:23:47;;;;;;;8.33;2.63;;;;;;;23.62;55.61;102976.28;5090564;28;20028;-73
2022/08/09 08:26:12;;;;;;;4.17;2.17;;;;;;;22.98;56.16;102980.50;5071514;28;20044;-74
2022/08/09 08:28:37;;;;;;;3.23;2.37;;;;;;;22.74;56.35;102984.13;5077416;28;20452;-74
2022/08/09 08:31:03;;;;;;;2.50;1.90;;;;;;;23.17;55.78;102986.00;5074404;28;20097;-73
2022/08/09 08:33:28;;;;;;;4.33;1.80;;;;;;;22.67;55.47;102989.75;5101361;28;20053;-73
2022/08/09 08:35:54;;;;;;;4.07;1.80;;;;;;;22.77;55.79;102986.47;5089643;28;20489;-73
2022/08/09 08:38:19;;;;;;;1.87;1.43;;;;;;;23.09;53.97;102993.75;5072062;28;20514;-73
2022/08/09 08:40:45;;;;;;;3.60;1.67;;;;;;;23.10;53.79;102992.69;5072056;28;20027;-73
2022/08/09 08:43:10;;;;;;;5.83;1.50;;;;;;;23.08;53.60;102994.84;5093828;28;20106;-72
2022/08/09 08:45:42;;;;;;;4.33;1.60;;;;;;;22.99;53.84;103002.66;5099955;28;20123;-74
2022/08/09 08:48:08;;;;;;;4.22;1.50;;;;;;;23.02;52.92;102992.94;5072328;28;20133;-73
2022/08/09 08:50:34;;;;;;;5.07;1.60;;;;;;;23.28;52.94;102995.56;5094023;28;20442;-73
2022/08/09 08:53:00;;;;;;;2.73;1.50;;;;;;;23.37;53.04;102983.00;5101056;28;20020;-73
2022/08/09 08:55:25;;;;;;;4.68;1.33;;;;;;;23.24;52.62;102989.56;5090161;28;20042;-72
2022/08/09 08:57:53;;;;;;;7.45;1.60;;;;;;;23.44;51.89;102993.06;5087076;28;20034;-73
2022/08/09 09:00:18;;;;;;;2.65;1.88;;;;;;;23.12;53.00;102993.31;5105387;28;20110;-73
2022/08/09 09:02:46;;;;;;;4.63;1.50;;;;;;;23.35;52.00;102990.75;5078850;28;20120;-73
2022/08/09 09:05:12;;;;;;;3.28;1.60;;;;;;;23.26;51.70;102997.75;5088738;28;20110;-73
2022/08/09 09:07:38;;;;;;;3.83;1.25;;;;;;;23.51;50.92;102992.97;5095885;28;20507;-74
2022/08/09 09:10:07;;;;;;;3.92;1.52;;;;;;;23.76;50.11;102988.19;5110739;28;20471;-73
2022/08/09 09:12:34;;;;;;;2.28;1.08;;;;;;;23.70;48.97;102997.50;5102032;28;20609;-73
2022/08/09 09:15:01;;;;;;;2.42;1.23;;;;;;;24.16;48.87;102992.28;5075895;28;20040;-72
2022/08/09 09:17:26;;;;;;;;;;;;;;;24.17;48.50;102994.81;5093174;28;20111;-73
2022/08/09 09:19:52;;;;;;;2.75;1.55;;;;;;;24.20;47.74;102996.28;5083424;28;20010;-73
2022/08/09 09:22:19;;;;;;;6.15;2.05;;;;;;;24.12;47.67;102986.25;5084916;28;20061;-74
2022/08/09 09:24:47;;;;;;;3.40;1.05;;;;;;;24.07;47.85;102996.47;5103502;28;20032;-74
2022/08/09 09:27:17;;;;;;;2.58;1.10;;;;;;;24.10;46.96;103001.59;5082092;28;20506;-73
2022/08/09 09:29:43;;;;;;;2.95;1.10;;;;;;;24.23;46.77;103004.25;5095073;28;20036;-76
2022/08/09 09:32:10;;;;;;;2.80;1.25;;;;;;;24.45;46.71;103006.31;5091924;28;20039;-74
2022/08/09 09:34:36;;;;;;;5.43;1.10;;;;;;;24.10;46.42;103007.19;5088685;28;20058;-73
2022/08/09 09:37:03;;;;;;;;;;;;;;;24.39;47.83;103004.44;5098698;28;20466;-73
2022/08/09 09:39:29;;;;;;;4.90;1.30;;;;;;;24.45;44.84;103002.66;5091866;28;19916;-73
2022/08/09 09:41:55;;;;;;;;;;;;;;;24.55;45.19;102988.94;5101647;28;20024;-73
2022/08/09 09:44:32;;;;;;;7.70;1.02;;;;;;;24.57;45.05;102992.34;5074952;28;20256;-73
2022/08/09 09:47:03;;;;;;;4.70;1.08;;;;;;;24.80;45.14;102990.50;5094730;28;20036;-73
2022/08/09 09:49:29;;;;;;;1.92;1.17;;;;;;;25.05;44.05;103001.53;5112001;28;20138;-73
2022/08/09 09:52:07;;;;;;;4.18;0.80;;;;;;;25.22;44.52;102995.00;5101700;28;20106;-72
2022/08/09 09:54:41;;;;;;;3.35;1.20;;;;;;;25.01;44.19;102987.16;5112062;28;20405;-73
2022/08/09 09:57:18;;;;;;;3.08;1.17;;;;;;;24.97;43.34;102993.50;5091539;28;20914;-73
2022/08/09 09:59:45;;;;;;;1.60;0.88;;;;;;;24.73;41.65;102994.50;5102937;28;20038;-73
2022/08/09 10:02:11;;;;;;;1.33;0.90;;;;;;;24.99;42.80;102992.16;5097235;28;20036;-72
2022/08/09 10:04:37;;;;;;;4.68;1.10;;;;;;;24.38;43.71;102991.53;5091853;28;20028;-73
2022/08/09 10:07:03;;;;;;;2.65;1.23;;;;;;;24.32;44.02;102994.44;5097353;28;20047;-72
2022/08/09 10:09:45;;;;;;;1.35;1.05;;;;;;;25.01;43.85;102989.09;5091588;28;20032;-73
2022/08/09 10:12:11;;;;;;;2.33;1.25;;;;;;;25.28;42.70;102990.41;5098889;28;20028;-72
2022/08/09 10:14:37;;;;;;;1.60;0.93;;;;;;;25.35;42.79;102996.75;5095265;28;20088;-73
2022/08/09 10:17:11;;;;;;;1.83;0.90;;;;;;;25.82;42.32;102984.41;5094669;28;20047;-74
2022/08/09 10:19:37;;;;;;;3.10;1.05;;;;;;;25.90;40.50;102986.84;5098058;28;20031;-73
2022/08/09 10:22:02;;;;;;;3.13;1.50;;;;;;;25.85;41.60;102986.72;5072943;28;20035;-73
2022/08/09 10:24:28;;;;;;;2.67;1.20;;;;;;;25.55;42.11;102974.81;5072445;28;20114;-73
2022/08/09 10:26:56;;;;;;;2.20;1.20;;;;;;;26.01;41.61;102975.63;5083974;28;20020;-73
2022/08/09 10:29:22;;;;;;;7.15;1.25;;;;;;;25.77;41.03;102975.88;5094301;28;20077;-74
2022/08/09 10:31:47;;;;;;;4.53;1.10;;;;;;;25.69;40.76;102979.03;5076380;28;20063;-73
2022/08/09 10:34:13;;;;;;;2.15;0.90;;;;;;;25.71;40.88;102974.06;5095907;28;20042;-75
2022/08/09 10:36:39;;;;;;;1.97;0.80;;;;;;;25.78;40.75;102980.38;5093467;28;20043;-73
2022/08/09 10:39:04;;;;;;;2.15;0.80;;;;;;;26.08;40.09;102964.25;5110080;28;20078;-76
2022/08/09 10:41:30;;;;;;;0.90;0.90;;;;;;;26.02;40.17;102968.03;5092774;28;20032;-75
2022/08/09 10:43:56;;;;;;;1.70;1.02;;;;;;;26.22;39.67;102971.28;5100456;28;20040;-76
2022/08/09 10:46:43;;;;;;;1.75;0.80;;;;;;;26.35;39.11;102969.03;5094999;28;20040;-77
2022/08/09 10:49:28;;;;;;;;;;;;;;;26.21;38.95;102966.75;5091313;28;20483;-77
2022/08/09 10:52:15;;;;;;;6.35;1.23;;;;;;;26.25;39.04;102965.16;5101546;28;19912;-76
2022/08/09 10:54:40;;;;;;;5.28;1.13;;;;;;;26.30;39.32;102968.09;5099876;28;20047;-77
2022/08/09 10:57:12;;;;;;;0.70;0.70;;;;;;;26.29;39.46;102963.53;5079362;28;20027;-76
2022/08/09 10:59:39;;;;;;;1.42;0.80;;;;;;;26.38;39.05;102962.03;5091770;28;20107;-77
2022/08/09 11:02:07;;;;;;;2.20;0.90;;;;;;;26.25;38.56;102962.34;5092603;28;20113;-76
2022/08/09 11:04:34;;;;;;;1.65;1.08;;;;;;;26.88;38.14;102949.84;5096662;28;20135;-72
2022/08/09 11:07:02;;;;;;;1.45;0.90;;;;;;;26.80;37.51;102963.47;5073664;28;20088;-77
2022/08/09 11:09:36;;;;;;;1.83;0.85;;;;;;;26.58;38.40;102973.75;5103193;28;20039;-75
2022/08/09 11:12:17;;;;;;;3.20;1.05;;;;;;;26.74;38.04;102964.47;5090563;28;20031;-76
2022/08/09 11:15:11;;;;;;;2.83;0.80;;;;;;;27.09;37.94;102956.66;5089323;28;20039;-75
2022/08/09 11:17:41;;;;;;;1.73;1.20;;;;;;;27.32;38.08;102963.00;5077075;28;20043;-76
2022/08/09 11:20:08;;;;;;;1.25;0.90;;;;;;;27.19;37.32;102956.88;5089730;28;20024;-79
2022/08/09 11:22:40;;;;;;;1.20;0.85;;;;;;;27.19;36.99;102951.22;5093407;28;20030;-77
2022/08/09 11:25:15;;;;;;;2.55;0.90;;;;;;;27.34;37.01;102952.34;5089661;28;20035;-77
2022/08/09 11:27:45;;;;;;;1.58;1.23;;;;;;;27.27;37.13;102957.28;5095096;28;20039;-75